Aérodrome :
LOGIN :

S'inscrire | Disclaimer

   EN    FR    IT 

 










Légende :    VFR   VFR Marginal   IFR   IFR Intensif   IFR Très Intensif
Visi : 
Plafond : 
>= 8 km
>= 3000ft
5 à 8 km
1000 à 3000 ft
1500m à 5 km
500 à 1000 ft
800 à 1500m
200 à 500 ft
< 800m
< 200 ft
Symboles :   Orages  Brouillard  Fortes neiges  Fortes précipitations  Vent > 20 kt
SIGMETs :   Divers  Orages  Givrage  Turbulence  Onde Orograph.  Cendres Volcan.






- Altitude de l'aérodrome : 82 ft
- Code IATA : ALG


DAAG - Alger Houari Boumedienne

DERNIER METAR :
  • 221500Z 19013KT 7000 NSC 20/04 Q1015

METARs EXPIRÉS :
  • 221430Z 18012KT 150V210 7000 NSC 21/06 Q1015
  • 221400Z 18012KT 150V210 7000 NSC 21/04 Q1015
  • 221330Z 18010KT 7000 NSC 21/04 Q1016
  • 221300Z 19008KT 160V220 7000 NSC 21/04 Q1016
  • 221230Z 17008KT 7000 NSC 21/04 Q1016
  • 221200Z 16006KT 120V200 7000 NSC 20/05 Q1017

TAF TAF DAAG
Valide du 22 à 12h jusqu'au 23 à 12h UTC


221100Z 2212/2312 17010KT 7000 FEW026 SCT100
PROB30
TEMPO 2212/2215 5000 HZ
PROB40 2216/2224 FEW030CB
PROB30
TEMPO 2218/2223 5000 -RA FEW023CB
BECMG 2220/2223 25010KT



MET'MAP, la Météo Aéronautique d'un coup d'oeil ! - Copyright ORBIFLY Décembre 2007 - Disclaimer

ORBIFLY MET'MAP TEAM :

Programmation & Développement : Alexandra Zaïnal
Sur une idée originale de : Baudouin d'Aumeries
Assistance à la programmation : Marc-Olivier Méhu
Soutien technique & logistique : Manuel Goepfert

Contact : metmap@orbifly.com




SOURCES & CREDITS :

   NOAA